sensor_id;sensor_type;location;lat;lon;timestamp;P1;durP1;ratioP1;P2;durP2;ratioP2
10275;SDS011;5183;51.190;6.820;2022-09-27T00:00:40;12.00;;;6.10;;
10275;SDS011;5183;51.190;6.820;2022-09-27T00:03:07;11.97;;;6.27;;
10275;SDS011;5183;51.190;6.820;2022-09-27T00:05:35;10.33;;;5.97;;
10275;SDS011;5183;51.190;6.820;2022-09-27T00:08:02;11.70;;;6.10;;
10275;SDS011;5183;51.190;6.820;2022-09-27T00:10:30;11.87;;;6.13;;
10275;SDS011;5183;51.190;6.820;2022-09-27T00:12:57;10.50;;;5.80;;
10275;SDS011;5183;51.190;6.820;2022-09-27T00:15:25;12.40;;;6.23;;
10275;SDS011;5183;51.190;6.820;2022-09-27T00:17:52;10.63;;;5.53;;
10275;SDS011;5183;51.190;6.820;2022-09-27T00:20:19;11.33;;;5.57;;
10275;SDS011;5183;51.190;6.820;2022-09-27T00:22:47;12.80;;;6.77;;
10275;SDS011;5183;51.190;6.820;2022-09-27T00:25:16;11.57;;;6.07;;
10275;SDS011;5183;51.190;6.820;2022-09-27T00:27:43;12.40;;;6.40;;
10275;SDS011;5183;51.190;6.820;2022-09-27T00:30:11;13.20;;;6.90;;
10275;SDS011;5183;51.190;6.820;2022-09-27T00:32:40;11.97;;;6.03;;
10275;SDS011;5183;51.190;6.820;2022-09-27T00:35:07;11.33;;;6.03;;
10275;SDS011;5183;51.190;6.820;2022-09-27T00:37:34;12.27;;;6.13;;
10275;SDS011;5183;51.190;6.820;2022-09-27T00:40:01;12.43;;;6.47;;
10275;SDS011;5183;51.190;6.820;2022-09-27T00:42:28;15.63;;;8.40;;
10275;SDS011;5183;51.190;6.820;2022-09-27T00:45:03;16.77;;;9.50;;
10275;SDS011;5183;51.190;6.820;2022-09-27T00:47:37;20.57;;;10.30;;
10275;SDS011;5183;51.190;6.820;2022-09-27T00:50:13;20.80;;;9.93;;
10275;SDS011;5183;51.190;6.820;2022-09-27T00:52:50;22.13;;;10.17;;
10275;SDS011;5183;51.190;6.820;2022-09-27T00:55:28;17.53;;;9.80;;
10275;SDS011;5183;51.190;6.820;2022-09-27T00:58:00;19.17;;;9.47;;
10275;SDS011;5183;51.190;6.820;2022-09-27T01:00:28;15.70;;;9.00;;
10275;SDS011;5183;51.190;6.820;2022-09-27T01:02:57;12.30;;;9.33;;
10275;SDS011;5183;51.190;6.820;2022-09-27T01:05:26;19.93;;;8.63;;
10275;SDS011;5183;51.190;6.820;2022-09-27T01:07:54;16.80;;;8.23;;
10275;SDS011;5183;51.190;6.820;2022-09-27T01:10:24;15.93;;;8.97;;
10275;SDS011;5183;51.190;6.820;2022-09-27T01:12:57;13.53;;;8.40;;
10275;SDS011;5183;51.190;6.820;2022-09-27T01:15:33;10.40;;;7.10;;
10275;SDS011;5183;51.190;6.820;2022-09-27T01:18:13;10.60;;;7.17;;
10275;SDS011;5183;51.190;6.820;2022-09-27T01:23:53;10.40;;;6.50;;
10275;SDS011;5183;51.190;6.820;2022-09-27T01:30:15;12.00;;;7.10;;
10275;SDS011;5183;51.190;6.820;2022-09-27T01:32:47;8.00;;;5.97;;
10275;SDS011;5183;51.190;6.820;2022-09-27T01:35:20;7.70;;;6.20;;
10275;SDS011;5183;51.190;6.820;2022-09-27T01:37:56;11.30;;;7.83;;
10275;SDS011;5183;51.190;6.820;2022-09-27T01:40:38;9.97;;;6.43;;
10275;SDS011;5183;51.190;6.820;2022-09-27T01:43:12;8.67;;;6.20;;
10275;SDS011;5183;51.190;6.820;2022-09-27T01:45:44;9.73;;;6.40;;
10275;SDS011;5183;51.190;6.820;2022-09-27T01:48:17;11.20;;;6.23;;
10275;SDS011;5183;51.190;6.820;2022-09-27T01:50:48;12.67;;;6.67;;
10275;SDS011;5183;51.190;6.820;2022-09-27T01:53:20;10.70;;;6.53;;
10275;SDS011;5183;51.190;6.820;2022-09-27T01:55:50;10.70;;;6.70;;
10275;SDS011;5183;51.190;6.820;2022-09-27T01:58:20;10.87;;;6.63;;
10275;SDS011;5183;51.190;6.820;2022-09-27T02:00:53;10.47;;;6.73;;
10275;SDS011;5183;51.190;6.820;2022-09-27T02:03:22;10.90;;;7.13;;
10275;SDS011;5183;51.190;6.820;2022-09-27T02:05:51;12.40;;;7.07;;
10275;SDS011;5183;51.190;6.820;2022-09-27T02:08:24;10.70;;;7.57;;
10275;SDS011;5183;51.190;6.820;2022-09-27T02:10:57;14.17;;;8.77;;
10275;SDS011;5183;51.190;6.820;2022-09-27T02:13:30;13.80;;;9.93;;
10275;SDS011;5183;51.190;6.820;2022-09-27T02:16:04;16.67;;;11.50;;
10275;SDS011;5183;51.190;6.820;2022-09-27T02:18:46;19.40;;;13.37;;
10275;SDS011;5183;51.190;6.820;2022-09-27T02:21:19;20.63;;;13.43;;
10275;SDS011;5183;51.190;6.820;2022-09-27T02:23:49;18.53;;;14.23;;
10275;SDS011;5183;51.190;6.820;2022-09-27T02:26:21;15.87;;;12.30;;
10275;SDS011;5183;51.190;6.820;2022-09-27T02:28:54;20.13;;;12.10;;
10275;SDS011;5183;51.190;6.820;2022-09-27T02:31:27;14.37;;;9.27;;
10275;SDS011;5183;51.190;6.820;2022-09-27T02:33:55;14.47;;;9.37;;
10275;SDS011;5183;51.190;6.820;2022-09-27T02:36:26;11.80;;;8.63;;
10275;SDS011;5183;51.190;6.820;2022-09-27T02:38:53;18.63;;;9.07;;
10275;SDS011;5183;51.190;6.820;2022-09-27T02:41:21;15.10;;;8.80;;
10275;SDS011;5183;51.190;6.820;2022-09-27T02:43:48;12.93;;;8.97;;
10275;SDS011;5183;51.190;6.820;2022-09-27T02:46:24;11.87;;;8.40;;
10275;SDS011;5183;51.190;6.820;2022-09-27T02:49:07;13.03;;;8.63;;
10275;SDS011;5183;51.190;6.820;2022-09-27T02:51:47;12.97;;;10.20;;
10275;SDS011;5183;51.190;6.820;2022-09-27T02:54:28;13.87;;;10.47;;
10275;SDS011;5183;51.190;6.820;2022-09-27T02:57:10;12.13;;;9.60;;
10275;SDS011;5183;51.190;6.820;2022-09-27T02:59:49;13.17;;;10.37;;
10275;SDS011;5183;51.190;6.820;2022-09-27T03:02:25;16.37;;;12.27;;
10275;SDS011;5183;51.190;6.820;2022-09-27T03:04:58;18.17;;;13.90;;
10275;SDS011;5183;51.190;6.820;2022-09-27T03:07:28;19.73;;;13.83;;
10275;SDS011;5183;51.190;6.820;2022-09-27T03:09:56;16.87;;;13.93;;
10275;SDS011;5183;51.190;6.820;2022-09-27T03:12:23;23.77;;;16.23;;
10275;SDS011;5183;51.190;6.820;2022-09-27T03:14:51;22.00;;;16.77;;
10275;SDS011;5183;51.190;6.820;2022-09-27T03:17:19;22.97;;;19.03;;
10275;SDS011;5183;51.190;6.820;2022-09-27T03:19:48;22.03;;;18.23;;
10275;SDS011;5183;51.190;6.820;2022-09-27T03:22:15;18.03;;;13.40;;
10275;SDS011;5183;51.190;6.820;2022-09-27T03:24:42;13.60;;;10.83;;
10275;SDS011;5183;51.190;6.820;2022-09-27T03:27:09;10.80;;;9.10;;
10275;SDS011;5183;51.190;6.820;2022-09-27T03:29:37;7.70;;;6.83;;
10275;SDS011;5183;51.190;6.820;2022-09-27T03:32:03;7.80;;;6.20;;
10275;SDS011;5183;51.190;6.820;2022-09-27T03:34:30;6.00;;;4.73;;
10275;SDS011;5183;51.190;6.820;2022-09-27T03:36:59;6.97;;;4.77;;
10275;SDS011;5183;51.190;6.820;2022-09-27T03:39:26;6.53;;;4.33;;
10275;SDS011;5183;51.190;6.820;2022-09-27T03:41:53;8.00;;;4.13;;
10275;SDS011;5183;51.190;6.820;2022-09-27T03:44:20;7.37;;;4.30;;
10275;SDS011;5183;51.190;6.820;2022-09-27T03:46:46;6.20;;;3.63;;
10275;SDS011;5183;51.190;6.820;2022-09-27T03:49:13;5.77;;;3.73;;
10275;SDS011;5183;51.190;6.820;2022-09-27T03:51:40;5.93;;;3.67;;
10275;SDS011;5183;51.190;6.820;2022-09-27T03:54:09;7.10;;;3.50;;
10275;SDS011;5183;51.190;6.820;2022-09-27T03:56:36;7.87;;;3.60;;
10275;SDS011;5183;51.190;6.820;2022-09-27T03:59:03;4.90;;;3.60;;
10275;SDS011;5183;51.190;6.820;2022-09-27T04:01:30;9.30;;;4.30;;
10275;SDS011;5183;51.190;6.820;2022-09-27T04:03:59;6.70;;;4.13;;
10275;SDS011;5183;51.190;6.820;2022-09-27T04:06:26;8.27;;;4.40;;
10275;SDS011;5183;51.190;6.820;2022-09-27T04:08:54;9.80;;;4.73;;
10275;SDS011;5183;51.190;6.820;2022-09-27T04:11:22;7.33;;;4.83;;
10275;SDS011;5183;51.190;6.820;2022-09-27T04:13:49;7.20;;;4.57;;
10275;SDS011;5183;51.190;6.820;2022-09-27T04:16:16;10.27;;;5.10;;
10275;SDS011;5183;51.190;6.820;2022-09-27T04:18:43;9.07;;;4.77;;
10275;SDS011;5183;51.190;6.820;2022-09-27T04:21:10;5.97;;;4.40;;
10275;SDS011;5183;51.190;6.820;2022-09-27T04:23:37;8.07;;;4.87;;
10275;SDS011;5183;51.190;6.820;2022-09-27T04:26:04;9.07;;;5.23;;
10275;SDS011;5183;51.190;6.820;2022-09-27T04:28:33;7.93;;;5.10;;
10275;SDS011;5183;51.190;6.820;2022-09-27T04:31:00;7.63;;;4.50;;
10275;SDS011;5183;51.190;6.820;2022-09-27T04:33:26;8.53;;;4.50;;
10275;SDS011;5183;51.190;6.820;2022-09-27T04:35:53;9.87;;;4.87;;
10275;SDS011;5183;51.190;6.820;2022-09-27T04:38:38;4.97;;;3.80;;
10275;SDS011;5183;51.190;6.820;2022-09-27T04:41:05;7.10;;;4.37;;
10275;SDS011;5183;51.190;6.820;2022-09-27T04:43:33;8.17;;;3.87;;
10275;SDS011;5183;51.190;6.820;2022-09-27T04:46:00;9.93;;;6.47;;
10275;SDS011;5183;51.190;6.820;2022-09-27T04:48:27;6.30;;;3.37;;
10275;SDS011;5183;51.190;6.820;2022-09-27T04:50:55;5.93;;;3.80;;
10275;SDS011;5183;51.190;6.820;2022-09-27T04:53:22;10.37;;;3.30;;
10275;SDS011;5183;51.190;6.820;2022-09-27T04:55:51;8.03;;;3.93;;
10275;SDS011;5183;51.190;6.820;2022-09-27T04:58:18;4.63;;;3.40;;
10275;SDS011;5183;51.190;6.820;2022-09-27T05:00:47;7.67;;;3.57;;
10275;SDS011;5183;51.190;6.820;2022-09-27T05:03:16;6.57;;;3.60;;
10275;SDS011;5183;51.190;6.820;2022-09-27T05:05:43;6.63;;;3.75;;
10275;SDS011;5183;51.190;6.820;2022-09-27T05:08:10;6.20;;;3.50;;
10275;SDS011;5183;51.190;6.820;2022-09-27T05:10:37;6.27;;;3.60;;
10275;SDS011;5183;51.190;6.820;2022-09-27T05:13:04;6.47;;;3.80;;
10275;SDS011;5183;51.190;6.820;2022-09-27T05:15:31;6.23;;;3.40;;
10275;SDS011;5183;51.190;6.820;2022-09-27T05:18:00;6.03;;;3.47;;
10275;SDS011;5183;51.190;6.820;2022-09-27T05:20:27;5.93;;;3.13;;
10275;SDS011;5183;51.190;6.820;2022-09-27T05:22:54;6.10;;;3.57;;
10275;SDS011;5183;51.190;6.820;2022-09-27T05:25:21;6.10;;;3.00;;
10275;SDS011;5183;51.190;6.820;2022-09-27T05:27:48;7.57;;;3.10;;
10275;SDS011;5183;51.190;6.820;2022-09-27T05:30:15;6.27;;;3.20;;
10275;SDS011;5183;51.190;6.820;2022-09-27T05:32:42;5.67;;;2.87;;
10275;SDS011;5183;51.190;6.820;2022-09-27T05:35:13;5.23;;;2.50;;
10275;SDS011;5183;51.190;6.820;2022-09-27T05:37:41;5.90;;;3.00;;
10275;SDS011;5183;51.190;6.820;2022-09-27T05:40:08;8.40;;;2.70;;
10275;SDS011;5183;51.190;6.820;2022-09-27T05:42:37;4.97;;;2.40;;
10275;SDS011;5183;51.190;6.820;2022-09-27T05:45:05;6.63;;;2.57;;
10275;SDS011;5183;51.190;6.820;2022-09-27T05:47:32;3.83;;;2.20;;
10275;SDS011;5183;51.190;6.820;2022-09-27T05:49:59;6.13;;;2.10;;
10275;SDS011;5183;51.190;6.820;2022-09-27T05:52:27;6.00;;;2.17;;
10275;SDS011;5183;51.190;6.820;2022-09-27T05:54:54;5.73;;;2.07;;
10275;SDS011;5183;51.190;6.820;2022-09-27T05:57:22;4.97;;;2.00;;
10275;SDS011;5183;51.190;6.820;2022-09-27T05:59:49;5.57;;;2.10;;
10275;SDS011;5183;51.190;6.820;2022-09-27T06:02:16;4.13;;;2.10;;
10275;SDS011;5183;51.190;6.820;2022-09-27T06:04:43;5.07;;;1.80;;
10275;SDS011;5183;51.190;6.820;2022-09-27T06:07:10;6.57;;;2.10;;
10275;SDS011;5183;51.190;6.820;2022-09-27T06:09:38;4.77;;;1.80;;
10275;SDS011;5183;51.190;6.820;2022-09-27T06:12:05;4.97;;;2.10;;
10275;SDS011;5183;51.190;6.820;2022-09-27T06:14:34;2.80;;;1.80;;
10275;SDS011;5183;51.190;6.820;2022-09-27T06:17:02;5.63;;;1.77;;
10275;SDS011;5183;51.190;6.820;2022-09-27T06:19:29;4.37;;;1.60;;
10275;SDS011;5183;51.190;6.820;2022-09-27T06:21:56;4.73;;;1.93;;
10275;SDS011;5183;51.190;6.820;2022-09-27T06:24:23;2.77;;;2.03;;
10275;SDS011;5183;51.190;6.820;2022-09-27T06:26:51;9.30;;;2.47;;
10275;SDS011;5183;51.190;6.820;2022-09-27T06:29:18;4.67;;;1.73;;
10275;SDS011;5183;51.190;6.820;2022-09-27T06:31:45;5.07;;;1.70;;
10275;SDS011;5183;51.190;6.820;2022-09-27T06:34:12;5.60;;;2.03;;
10275;SDS011;5183;51.190;6.820;2022-09-27T06:36:38;4.50;;;1.70;;
10275;SDS011;5183;51.190;6.820;2022-09-27T06:39:05;4.70;;;1.83;;
10275;SDS011;5183;51.190;6.820;2022-09-27T06:41:32;4.60;;;2.00;;
10275;SDS011;5183;51.190;6.820;2022-09-27T06:44:01;4.17;;;1.80;;
10275;SDS011;5183;51.190;6.820;2022-09-27T06:46:28;3.97;;;2.10;;
10275;SDS011;5183;51.190;6.820;2022-09-27T06:48:55;4.73;;;2.27;;
10275;SDS011;5183;51.190;6.820;2022-09-27T06:51:22;3.83;;;1.90;;
10275;SDS011;5183;51.190;6.820;2022-09-27T06:53:49;4.47;;;2.50;;
10275;SDS011;5183;51.190;6.820;2022-09-27T06:56:16;4.23;;;2.20;;
10275;SDS011;5183;51.190;6.820;2022-09-27T06:58:43;4.60;;;2.10;;
10275;SDS011;5183;51.190;6.820;2022-09-27T07:01:28;2.77;;;1.80;;
10275;SDS011;5183;51.190;6.820;2022-09-27T07:03:55;4.27;;;2.30;;
10275;SDS011;5183;51.190;6.820;2022-09-27T07:06:23;4.73;;;2.20;;
10275;SDS011;5183;51.190;6.820;2022-09-27T07:08:50;3.83;;;2.17;;
10275;SDS011;5183;51.190;6.820;2022-09-27T07:11:18;3.37;;;2.00;;
10275;SDS011;5183;51.190;6.820;2022-09-27T07:13:47;4.80;;;2.33;;
10275;SDS011;5183;51.190;6.820;2022-09-27T07:16:15;4.43;;;1.90;;
10275;SDS011;5183;51.190;6.820;2022-09-27T07:18:45;4.83;;;1.90;;
10275;SDS011;5183;51.190;6.820;2022-09-27T07:21:13;4.07;;;1.80;;
10275;SDS011;5183;51.190;6.820;2022-09-27T07:23:40;3.73;;;1.73;;
10275;SDS011;5183;51.190;6.820;2022-09-27T07:26:08;1.77;;;1.60;;
10275;SDS011;5183;51.190;6.820;2022-09-27T07:28:35;3.60;;;1.83;;
10275;SDS011;5183;51.190;6.820;2022-09-27T07:31:05;3.67;;;1.60;;
10275;SDS011;5183;51.190;6.820;2022-09-27T07:33:33;3.03;;;1.73;;
10275;SDS011;5183;51.190;6.820;2022-09-27T07:36:06;4.93;;;1.80;;
10275;SDS011;5183;51.190;6.820;2022-09-27T07:38:34;4.33;;;1.50;;
10275;SDS011;5183;51.190;6.820;2022-09-27T07:41:04;4.10;;;1.77;;
10275;SDS011;5183;51.190;6.820;2022-09-27T07:43:32;3.97;;;1.60;;
10275;SDS011;5183;51.190;6.820;2022-09-27T07:45:59;4.30;;;1.70;;
10275;SDS011;5183;51.190;6.820;2022-09-27T07:48:26;4.43;;;1.80;;
10275;SDS011;5183;51.190;6.820;2022-09-27T07:50:53;5.80;;;2.00;;
10275;SDS011;5183;51.190;6.820;2022-09-27T07:53:21;3.63;;;1.77;;
10275;SDS011;5183;51.190;6.820;2022-09-27T07:55:48;4.93;;;1.50;;
10275;SDS011;5183;51.190;6.820;2022-09-27T07:58:17;3.00;;;1.47;;
10275;SDS011;5183;51.190;6.820;2022-09-27T08:00:45;3.93;;;1.60;;
10275;SDS011;5183;51.190;6.820;2022-09-27T08:03:13;3.37;;;1.60;;
10275;SDS011;5183;51.190;6.820;2022-09-27T08:05:41;3.17;;;1.53;;
10275;SDS011;5183;51.190;6.820;2022-09-27T08:08:09;4.87;;;1.67;;
10275;SDS011;5183;51.190;6.820;2022-09-27T08:10:37;3.43;;;1.40;;
10275;SDS011;5183;51.190;6.820;2022-09-27T08:13:08;4.40;;;1.30;;
10275;SDS011;5183;51.190;6.820;2022-09-27T08:15:36;3.20;;;1.40;;
10275;SDS011;5183;51.190;6.820;2022-09-27T08:18:03;1.87;;;1.40;;
10275;SDS011;5183;51.190;6.820;2022-09-27T08:20:31;4.53;;;1.93;;
10275;SDS011;5183;51.190;6.820;2022-09-27T08:22:58;1.60;;;1.47;;
10275;SDS011;5183;51.190;6.820;2022-09-27T08:25:25;3.70;;;1.47;;
10275;SDS011;5183;51.190;6.820;2022-09-27T08:27:57;1.90;;;1.60;;
10275;SDS011;5183;51.190;6.820;2022-09-27T08:30:25;3.23;;;1.63;;
10275;SDS011;5183;51.190;6.820;2022-09-27T08:32:55;2.33;;;1.77;;
10275;SDS011;5183;51.190;6.820;2022-09-27T08:35:23;2.87;;;1.50;;
10275;SDS011;5183;51.190;6.820;2022-09-27T08:37:54;2.97;;;1.60;;
10275;SDS011;5183;51.190;6.820;2022-09-27T08:40:23;3.40;;;1.70;;
10275;SDS011;5183;51.190;6.820;2022-09-27T08:43:00;2.93;;;1.87;;
10275;SDS011;5183;51.190;6.820;2022-09-27T08:45:34;4.67;;;1.77;;
10275;SDS011;5183;51.190;6.820;2022-09-27T08:48:07;3.93;;;1.60;;
10275;SDS011;5183;51.190;6.820;2022-09-27T08:50:36;1.90;;;1.57;;
10275;SDS011;5183;51.190;6.820;2022-09-27T08:53:13;3.20;;;1.60;;
10275;SDS011;5183;51.190;6.820;2022-09-27T08:55:46;1.63;;;1.53;;
10275;SDS011;5183;51.190;6.820;2022-09-27T08:58:18;2.00;;;1.80;;
10275;SDS011;5183;51.190;6.820;2022-09-27T09:00:50;4.63;;;2.43;;
10275;SDS011;5183;51.190;6.820;2022-09-27T09:03:23;2.10;;;1.83;;
10275;SDS011;5183;51.190;6.820;2022-09-27T09:05:56;2.87;;;2.10;;
10275;SDS011;5183;51.190;6.820;2022-09-27T09:08:36;3.53;;;2.30;;
10275;SDS011;5183;51.190;6.820;2022-09-27T09:11:13;6.03;;;2.60;;
10275;SDS011;5183;51.190;6.820;2022-09-27T09:17:26;3.77;;;2.57;;
10275;SDS011;5183;51.190;6.820;2022-09-27T09:20:15;5.03;;;2.90;;
10275;SDS011;5183;51.190;6.820;2022-09-27T09:22:53;4.03;;;3.30;;
10275;SDS011;5183;51.190;6.820;2022-09-27T09:25:35;3.63;;;2.90;;
10275;SDS011;5183;51.190;6.820;2022-09-27T09:28:10;2.80;;;2.60;;
10275;SDS011;5183;51.190;6.820;2022-09-27T09:30:51;3.47;;;3.03;;
10275;SDS011;5183;51.190;6.820;2022-09-27T09:33:28;3.67;;;3.03;;
10275;SDS011;5183;51.190;6.820;2022-09-27T09:36:00;5.67;;;3.23;;
10275;SDS011;5183;51.190;6.820;2022-09-27T09:38:39;3.63;;;3.20;;
10275;SDS011;5183;51.190;6.820;2022-09-27T09:41:10;3.83;;;2.87;;
10275;SDS011;5183;51.190;6.820;2022-09-27T09:43:44;3.37;;;3.07;;
10275;SDS011;5183;51.190;6.820;2022-09-27T09:46:15;4.43;;;2.90;;
10275;SDS011;5183;51.190;6.820;2022-09-27T09:48:48;2.67;;;2.47;;
10275;SDS011;5183;51.190;6.820;2022-09-27T09:51:21;2.67;;;2.47;;
10275;SDS011;5183;51.190;6.820;2022-09-27T09:53:53;3.83;;;2.30;;
10275;SDS011;5183;51.190;6.820;2022-09-27T09:56:25;4.57;;;2.00;;
10275;SDS011;5183;51.190;6.820;2022-09-27T09:58:57;3.83;;;2.23;;
10275;SDS011;5183;51.190;6.820;2022-09-27T10:01:27;2.80;;;1.97;;
10275;SDS011;5183;51.190;6.820;2022-09-27T10:04:01;2.47;;;2.10;;
10275;SDS011;5183;51.190;6.820;2022-09-27T10:06:28;3.10;;;2.33;;
10275;SDS011;5183;51.190;6.820;2022-09-27T10:08:56;3.70;;;2.20;;
10275;SDS011;5183;51.190;6.820;2022-09-27T10:11:26;5.40;;;2.40;;
10275;SDS011;5183;51.190;6.820;2022-09-27T10:13:59;3.40;;;2.30;;
10275;SDS011;5183;51.190;6.820;2022-09-27T10:16:27;8.40;;;2.67;;
10275;SDS011;5183;51.190;6.820;2022-09-27T10:18:56;3.70;;;2.40;;
10275;SDS011;5183;51.190;6.820;2022-09-27T10:21:28;3.43;;;2.10;;
10275;SDS011;5183;51.190;6.820;2022-09-27T10:24:01;3.93;;;2.00;;
10275;SDS011;5183;51.190;6.820;2022-09-27T10:26:37;2.53;;;2.10;;
10275;SDS011;5183;51.190;6.820;2022-09-27T10:29:13;4.70;;;2.60;;
10275;SDS011;5183;51.190;6.820;2022-09-27T10:31:54;3.10;;;2.37;;
10275;SDS011;5183;51.190;6.820;2022-09-27T10:34:27;3.83;;;2.30;;
10275;SDS011;5183;51.190;6.820;2022-09-27T10:37:02;3.93;;;2.20;;
10275;SDS011;5183;51.190;6.820;2022-09-27T10:39:31;4.23;;;2.50;;
10275;SDS011;5183;51.190;6.820;2022-09-27T10:41:59;3.83;;;2.60;;
10275;SDS011;5183;51.190;6.820;2022-09-27T10:44:27;3.63;;;2.90;;
10275;SDS011;5183;51.190;6.820;2022-09-27T10:46:57;3.83;;;3.10;;
10275;SDS011;5183;51.190;6.820;2022-09-27T10:49:32;4.80;;;3.30;;
10275;SDS011;5183;51.190;6.820;2022-09-27T10:52:01;4.57;;;2.97;;
10275;SDS011;5183;51.190;6.820;2022-09-27T10:54:31;4.77;;;3.30;;
10275;SDS011;5183;51.190;6.820;2022-09-27T10:57:00;4.77;;;3.60;;
10275;SDS011;5183;51.190;6.820;2022-09-27T10:59:30;5.20;;;3.47;;
10275;SDS011;5183;51.190;6.820;2022-09-27T11:01:58;5.73;;;4.20;;
10275;SDS011;5183;51.190;6.820;2022-09-27T11:04:28;4.93;;;3.93;;
10275;SDS011;5183;51.190;6.820;2022-09-27T11:07:07;5.73;;;3.93;;
10275;SDS011;5183;51.190;6.820;2022-09-27T11:09:48;5.73;;;4.50;;
10275;SDS011;5183;51.190;6.820;2022-09-27T11:12:19;5.53;;;3.90;;
10275;SDS011;5183;51.190;6.820;2022-09-27T11:14:51;5.63;;;4.67;;
10275;SDS011;5183;51.190;6.820;2022-09-27T11:17:24;4.33;;;3.93;;
10275;SDS011;5183;51.190;6.820;2022-09-27T11:25:54;4.60;;;4.20;;
10275;SDS011;5183;51.190;6.820;2022-09-27T11:28:35;4.77;;;4.00;;
10275;SDS011;5183;51.190;6.820;2022-09-27T11:31:12;4.20;;;3.73;;
10275;SDS011;5183;51.190;6.820;2022-09-27T11:33:53;4.23;;;3.77;;
10275;SDS011;5183;51.190;6.820;2022-09-27T11:36:41;4.50;;;3.73;;
10275;SDS011;5183;51.190;6.820;2022-09-27T11:39:18;4.10;;;3.50;;
10275;SDS011;5183;51.190;6.820;2022-09-27T11:41:55;4.50;;;3.50;;
10275;SDS011;5183;51.190;6.820;2022-09-27T11:44:38;3.93;;;3.27;;
10275;SDS011;5183;51.190;6.820;2022-09-27T11:47:20;4.70;;;3.30;;
10275;SDS011;5183;51.190;6.820;2022-09-27T11:50:09;3.83;;;3.30;;
10275;SDS011;5183;51.190;6.820;2022-09-27T11:53:02;6.83;;;3.63;;
10275;SDS011;5183;51.190;6.820;2022-09-27T11:55:42;4.33;;;2.90;;
10275;SDS011;5183;51.190;6.820;2022-09-27T11:58:16;4.43;;;3.07;;
10275;SDS011;5183;51.190;6.820;2022-09-27T12:00:54;3.97;;;2.90;;
10275;SDS011;5183;51.190;6.820;2022-09-27T12:06:26;3.47;;;2.97;;
10275;SDS011;5183;51.190;6.820;2022-09-27T12:09:02;5.03;;;2.90;;
10275;SDS011;5183;51.190;6.820;2022-09-27T12:11:35;2.77;;;2.10;;
10275;SDS011;5183;51.190;6.820;2022-09-27T12:14:07;4.43;;;2.77;;
10275;SDS011;5183;51.190;6.820;2022-09-27T12:16:39;4.93;;;2.73;;
10275;SDS011;5183;51.190;6.820;2022-09-27T12:19:09;4.27;;;2.47;;
10275;SDS011;5183;51.190;6.820;2022-09-27T12:21:43;2.50;;;2.30;;
10275;SDS011;5183;51.190;6.820;2022-09-27T12:24:13;4.07;;;2.10;;
10275;SDS011;5183;51.190;6.820;2022-09-27T12:26:46;3.17;;;2.33;;
10275;SDS011;5183;51.190;6.820;2022-09-27T12:29:17;2.97;;;2.67;;
10275;SDS011;5183;51.190;6.820;2022-09-27T12:31:49;3.40;;;2.70;;
10275;SDS011;5183;51.190;6.820;2022-09-27T12:34:24;3.20;;;2.60;;
10275;SDS011;5183;51.190;6.820;2022-09-27T12:36:59;3.17;;;2.83;;
10275;SDS011;5183;51.190;6.820;2022-09-27T12:39:33;4.13;;;2.83;;
10275;SDS011;5183;51.190;6.820;2022-09-27T12:42:13;2.60;;;2.40;;
10275;SDS011;5183;51.190;6.820;2022-09-27T12:44:45;2.80;;;2.10;;
10275;SDS011;5183;51.190;6.820;2022-09-27T12:47:15;3.33;;;2.00;;
10275;SDS011;5183;51.190;6.820;2022-09-27T12:49:54;1.90;;;1.30;;
10275;SDS011;5183;51.190;6.820;2022-09-27T12:52:29;2.73;;;1.87;;
10275;SDS011;5183;51.190;6.820;2022-09-27T12:55:10;2.40;;;1.60;;
10275;SDS011;5183;51.190;6.820;2022-09-27T12:58:09;2.00;;;1.80;;
10275;SDS011;5183;51.190;6.820;2022-09-27T13:00:56;3.07;;;1.80;;
10275;SDS011;5183;51.190;6.820;2022-09-27T13:06:23;3.17;;;2.10;;
10275;SDS011;5183;51.190;6.820;2022-09-27T13:09:16;2.57;;;1.90;;
10275;SDS011;5183;51.190;6.820;2022-09-27T13:11:52;2.93;;;2.00;;
10275;SDS011;5183;51.190;6.820;2022-09-27T13:14:27;2.93;;;2.20;;
10275;SDS011;5183;51.190;6.820;2022-09-27T13:16:57;2.60;;;2.40;;
10275;SDS011;5183;51.190;6.820;2022-09-27T13:19:38;3.80;;;2.37;;
10275;SDS011;5183;51.190;6.820;2022-09-27T13:22:07;2.30;;;2.10;;
10275;SDS011;5183;51.190;6.820;2022-09-27T13:24:38;2.30;;;2.17;;
10275;SDS011;5183;51.190;6.820;2022-09-27T13:33:27;3.00;;;1.80;;
10275;SDS011;5183;51.190;6.820;2022-09-27T13:36:04;1.97;;;1.50;;
10275;SDS011;5183;51.190;6.820;2022-09-27T13:38:33;1.90;;;1.40;;
10275;SDS011;5183;51.190;6.820;2022-09-27T13:41:11;1.53;;;1.20;;
10275;SDS011;5183;51.190;6.820;2022-09-27T13:43:48;1.37;;;1.27;;
10275;SDS011;5183;51.190;6.820;2022-09-27T13:46:30;1.20;;;1.10;;
10275;SDS011;5183;51.190;6.820;2022-09-27T13:49:01;3.17;;;1.50;;
10275;SDS011;5183;51.190;6.820;2022-09-27T13:51:33;1.10;;;1.10;;
10275;SDS011;5183;51.190;6.820;2022-09-27T13:54:08;1.27;;;1.17;;
10275;SDS011;5183;51.190;6.820;2022-09-27T14:00:07;2.80;;;1.27;;
10275;SDS011;5183;51.190;6.820;2022-09-27T14:02:38;1.40;;;1.20;;
10275;SDS011;5183;51.190;6.820;2022-09-27T14:05:13;1.93;;;1.50;;
10275;SDS011;5183;51.190;6.820;2022-09-27T14:07:45;1.30;;;1.20;;
10275;SDS011;5183;51.190;6.820;2022-09-27T14:10:17;1.30;;;1.20;;
10275;SDS011;5183;51.190;6.820;2022-09-27T14:12:47;1.43;;;1.10;;
10275;SDS011;5183;51.190;6.820;2022-09-27T14:15:18;3.30;;;1.30;;
10275;SDS011;5183;51.190;6.820;2022-09-27T14:17:48;1.30;;;1.20;;
10275;SDS011;5183;51.190;6.820;2022-09-27T14:20:32;1.40;;;1.30;;
10275;SDS011;5183;51.190;6.820;2022-09-27T14:23:05;1.50;;;1.40;;
10275;SDS011;5183;51.190;6.820;2022-09-27T14:25:42;1.37;;;1.27;;
10275;SDS011;5183;51.190;6.820;2022-09-27T14:28:20;1.30;;;1.20;;
10275;SDS011;5183;51.190;6.820;2022-09-27T14:31:03;1.40;;;1.10;;
10275;SDS011;5183;51.190;6.820;2022-09-27T14:33:31;1.53;;;1.20;;
10275;SDS011;5183;51.190;6.820;2022-09-27T14:35:59;2.10;;;1.03;;
10275;SDS011;5183;51.190;6.820;2022-09-27T14:38:44;1.93;;;1.10;;
10275;SDS011;5183;51.190;6.820;2022-09-27T14:41:14;1.10;;;1.00;;
10275;SDS011;5183;51.190;6.820;2022-09-27T14:43:41;1.97;;;1.20;;
10275;SDS011;5183;51.190;6.820;2022-09-27T14:46:22;2.60;;;1.20;;
10275;SDS011;5183;51.190;6.820;2022-09-27T14:48:52;1.23;;;1.13;;
10275;SDS011;5183;51.190;6.820;2022-09-27T14:51:20;3.37;;;1.30;;
10275;SDS011;5183;51.190;6.820;2022-09-27T14:53:52;1.80;;;1.27;;
10275;SDS011;5183;51.190;6.820;2022-09-27T14:56:24;2.33;;;1.30;;
10275;SDS011;5183;51.190;6.820;2022-09-27T14:58:57;2.73;;;1.50;;
10275;SDS011;5183;51.190;6.820;2022-09-27T15:01:27;2.87;;;1.47;;
10275;SDS011;5183;51.190;6.820;2022-09-27T15:03:55;2.17;;;1.33;;
10275;SDS011;5183;51.190;6.820;2022-09-27T15:06:28;3.43;;;1.80;;
10275;SDS011;5183;51.190;6.820;2022-09-27T15:08:55;2.67;;;1.60;;
10275;SDS011;5183;51.190;6.820;2022-09-27T15:11:25;4.00;;;1.70;;
10275;SDS011;5183;51.190;6.820;2022-09-27T15:13:53;2.17;;;1.37;;
10275;SDS011;5183;51.190;6.820;2022-09-27T15:16:22;2.17;;;1.30;;
10275;SDS011;5183;51.190;6.820;2022-09-27T15:18:58;3.37;;;1.57;;
10275;SDS011;5183;51.190;6.820;2022-09-27T15:21:28;3.53;;;1.80;;
10275;SDS011;5183;51.190;6.820;2022-09-27T15:23:56;2.80;;;1.60;;
10275;SDS011;5183;51.190;6.820;2022-09-27T15:26:26;2.77;;;1.83;;
10275;SDS011;5183;51.190;6.820;2022-09-27T15:29:01;3.20;;;1.70;;
10275;SDS011;5183;51.190;6.820;2022-09-27T15:31:29;4.73;;;1.63;;
10275;SDS011;5183;51.190;6.820;2022-09-27T15:33:58;3.30;;;1.50;;
10275;SDS011;5183;51.190;6.820;2022-09-27T15:39:25;4.23;;;1.70;;
10275;SDS011;5183;51.190;6.820;2022-09-27T15:42:06;6.00;;;2.07;;
10275;SDS011;5183;51.190;6.820;2022-09-27T15:44:38;4.27;;;1.90;;
10275;SDS011;5183;51.190;6.820;2022-09-27T15:50:33;3.87;;;2.17;;
10275;SDS011;5183;51.190;6.820;2022-09-27T15:53:01;5.33;;;2.27;;
10275;SDS011;5183;51.190;6.820;2022-09-27T15:55:31;5.10;;;2.30;;
10275;SDS011;5183;51.190;6.820;2022-09-27T15:58:03;7.30;;;2.83;;
10275;SDS011;5183;51.190;6.820;2022-09-27T16:00:32;3.67;;;2.47;;